AirNav   Airventure
 
 1078 users online  

0CL0 Yosemite Hidden Lake Ranch Airport
Raymond, California, USA

GOING TO RAYMOND?


FAA INFORMATION EFFECTIVE 20 JULY 2017

Location

FAA Identifier: 0CL0
Lat/Long: 37-07-04.8090N / 119-54-47.5690W
37-07.080150N / 119-54.792817W
37.1180025 / -119.9132136
(estimated)
Elevation: 500 ft. / 152 m (estimated)
Variation: 15E (1985)
From city: 6 miles S of RAYMOND, CA
Time zone: UTC -7 (UTC -8 during Standard Time)
Zip code: 93638

Airport Operations

Airport use: Private use. Permission required prior to landing
Activation date: 11/1972
Control tower: no
ARTCC: OAKLAND CENTER
FSS: RANCHO MURIETA FLIGHT SERVICE STATION
Attendance: UNATNDD
Wind indicator: yes
Segmented circle: no

Airport Communications

WX ASOS at MAE (12 nm SW): 134.725 (559-674-1781)

Nearby radio navigation aids

VOR radial/distance  VOR name  Freq  Var
CZQr326/14.8CLOVIS VORTAC112.9015E
FRAr256/15.2FRIANT VORTAC115.6017E
HYPr090/24.1EL NIDO VOR/DME114.2015E

 
NDB name  Hdg/Dist  Freq  Var  ID
CHANDLER336/23.934415EFCH ..-. -.-. ....

Airport Services

Airframe service: NONE
Powerplant service: NONE

Runway Information

Runway 17/35

Dimensions: 3720 x 75 ft. / 1134 x 23 m
Surface: dirt
RUNWAY 17  RUNWAY 35
Traffic pattern: leftleft

Airport Ownership and Management from official FAA records

Ownership: Privately-owned
Owner: ALFRED PETSCHAUER
25363 RUN WAY
RAYMOND, CA 93653
Phone 559-395-3680
CO-OWNER.
Manager: ALFRED PETSCHAUER
25363 RUN WAY
RAYMOND, CA 93653
Phone 559-395-3680

Instrument Procedures

There are no published instrument procedures at 0CL0.

Some nearby airports with instrument procedures:

KMAE - Madera Municipal Airport (12 nm SW)
KFAT - Fresno Yosemite International Airport (23 nm SE)
KFCH - Fresno Chandler Executive Airport (24 nm S)
KMPI - Mariposa-Yosemite Airport (24 nm N)
KMCE - Merced Regional Airport/Macready Field (30 nm W)
 
Loc | Ops | Rwys | IFR | FBO | Links
Com | Nav | Svcs | Stats | Notes


 
Area around 0CL0 (Yosemite Hidden Lake Ranch Airport)
 
Road maps at: MapQuest Bing Google
 
Aerial photo
No photo
 
Sectional chart

 
Airport distance calculator
Flying to Yosemite Hidden Lake Ranch Airport? Find the distance to fly.

From to 0CL0

Sunrise and sunset
Times for 22-Jul-2017
 Local
(UTC-7)
 Zulu
(UTC)
Morning civil twilight05:2812:28
Sunrise05:5812:58
Sunset20:1403:14
Evening civil twilight20:4403:44

Current date and time
Zulu (UTC)  22-Jul-2017 18:11:20
Local (UTC-7)  22-Jul-2017 11:11:20
 
METAR
KMAE 
13nm SW 
221753Z AUTO 30007KT 10SM CLR 30/12 A2991 RMK AO2 SLP124 T03000122 10300 20178 58002
KFAT 
22nm SE 
221753Z 13005KT 10SM CLR 31/13 A2990 RMK AO2 SLP121 T03060128 10306 20217 58003
KFCH 
25nm S 
221755Z AUTO 26006KT 10SM CLR 28/14 A2990 RMK A01
TAF
KFAT 
22nm SE 
221740Z 2218/2318 31006KT P6SM SKC
NOTAMs
Click for the latest NOTAMs
NOTAMs are issued by the DoD/FAA and will open in a separate window not controlled by AirNav.

 

 
 

Would you like to see your business listed on this page?

 If your business provides an interesting product or service to pilots, flight crews, aircraft, or users of the Yosemite Hidden Lake Ranch Airport, you should consider listing it here.  To start the listing process, click on the button below
 
Add a business
 

Other Pages about Yosemite Hidden Lake Ranch Airport

Update a link
 
Copyright © AirNav, LLC. All rights reserved. Privacy Policy  Contact